Time;durP1;ratioP1;P1;durP2;ratioP2;P2;SDS_P1;SDS_P2;PMS_P1;PMS_P2;Temp;Humidity;BMP_temperature;BMP_pressure;BME280_temperature;BME280_humidity;BME280_pressure;Samples;Min_cycle;Max_cycle;Signal;HPM_P1;HPM_P2
2023/10/06 00:01:33;;;;;;;2.95;2.05;;;14.30;99.90;;;;;;5012765;28;20306;-64
2023/10/06 00:04:06;;;;;;;1.83;1.35;;;14.30;99.90;;;;;;5006362;28;20174;-65
2023/10/06 00:06:37;;;;;;;2.67;1.70;;;14.20;99.90;;;;;;5015409;28;20197;-65
2023/10/06 00:09:06;;;;;;;3.20;1.63;;;14.20;99.90;;;;;;5012139;28;20199;-65
2023/10/06 00:11:32;;;;;;;3.38;1.67;;;14.20;99.90;;;;;;5011325;28;20211;-65
2023/10/06 00:14:07;;;;;;;3.13;1.50;;;14.20;99.90;;;;;;5014373;28;20213;-65
2023/10/06 00:16:39;;;;;;;2.70;1.52;;;14.20;99.90;;;;;;5005207;28;20205;-65
2023/10/06 00:19:21;;;;;;;3.17;1.60;;;14.20;99.90;;;;;;5013619;28;20186;-65
2023/10/06 00:21:51;;;;;;;2.38;1.75;;;14.10;99.90;;;;;;5014701;28;20262;-65
2023/10/06 00:24:17;;;;;;;3.08;1.50;;;14.10;99.90;;;;;;5013515;28;20170;-65
2023/10/06 00:26:45;;;;;;;2.15;1.40;;;14.10;99.90;;;;;;5016906;28;20190;-65
2023/10/06 00:29:20;;;;;;;5.07;1.85;;;14.00;99.90;;;;;;5014676;28;20221;-65
2023/10/06 00:31:47;;;;;;;1.85;1.20;;;14.00;99.90;;;;;;5013137;28;20225;-65
2023/10/06 00:34:19;;;;;;;2.78;1.63;;;14.00;99.90;;;;;;5014084;28;20182;-65
2023/10/06 00:36:56;;;;;;;2.65;1.55;;;14.00;99.90;;;;;;5006217;28;20194;-65
2023/10/06 00:39:26;;;;;;;2.97;1.60;;;13.90;99.90;;;;;;5014293;28;20210;-65
2023/10/06 00:42:04;;;;;;;2.40;1.55;;;13.90;99.90;;;;;;5010159;28;20183;-65
2023/10/06 00:44:32;;;;;;;4.32;1.90;;;13.90;99.90;;;;;;5004484;28;20181;-68
2023/10/06 00:46:59;;;;;;;5.15;3.20;;;13.90;99.90;;;;;;5008457;28;20190;-66
2023/10/06 00:49:30;;;;;;;2.78;2.00;;;13.90;99.90;;;;;;5014522;28;20178;-65
2023/10/06 00:51:59;;;;;;;3.95;1.75;;;13.90;99.90;;;;;;5012284;28;20174;-65
2023/10/06 00:54:30;;;;;;;2.58;1.60;;;13.90;99.90;;;;;;5011265;28;20186;-65
2023/10/06 00:57:02;;;;;;;2.83;1.50;;;13.90;99.90;;;;;;5013099;28;20190;-66
2023/10/06 00:59:27;;;;;;;2.85;1.65;;;13.90;99.90;;;;;;5013818;28;20209;-67
2023/10/06 01:01:53;;;;;;;3.50;1.52;;;13.90;99.90;;;;;;5014485;28;20170;-68
2023/10/06 01:04:25;;;;;;;3.63;1.90;;;13.90;99.90;;;;;;5014914;28;20210;-66
2023/10/06 01:06:54;;;;;;;4.80;1.80;;;13.90;99.90;;;;;;5014856;28;20177;-67
2023/10/06 01:09:30;;;;;;;3.47;1.80;;;13.90;99.90;;;;;;5014720;28;20178;-67
2023/10/06 01:11:57;;;;;;;2.42;1.45;;;13.90;99.90;;;;;;5014721;28;20204;-67
2023/10/06 01:14:27;;;;;;;4.20;1.90;;;13.80;99.90;;;;;;5014534;28;20181;-68
2023/10/06 01:19:35;;;;;;;4.05;1.70;;;13.80;99.90;;;;;;5013814;28;20194;-67
2023/10/06 01:22:14;;;;;;;2.72;1.65;;;13.80;99.90;;;;;;5014774;28;20186;-66
2023/10/06 01:24:40;;;;;;;1.95;1.50;;;13.80;99.90;;;;;;5016320;28;20218;-67
2023/10/06 01:27:06;;;;;;;3.28;1.75;;;13.80;99.90;;;;;;5018160;28;20272;-67
2023/10/06 01:29:32;;;;;;;6.00;2.00;;;13.80;99.90;;;;;;5016169;28;20248;-67
2023/10/06 01:32:04;;;;;;;2.50;1.55;;;13.70;99.90;;;;;;5009184;28;20238;-67
2023/10/06 01:34:38;;;;;;;2.72;1.65;;;13.80;99.90;;;;;;5011989;28;20190;-66
2023/10/06 01:37:09;;;;;;;2.60;1.40;;;13.70;99.90;;;;;;5018119;28;20192;-64
2023/10/06 01:39:35;;;;;;;4.70;2.05;;;13.80;99.90;;;;;;5017926;28;20202;-67
2023/10/06 01:42:04;;;;;;;3.97;1.90;;;13.70;99.90;;;;;;5017049;28;20246;-66
2023/10/06 01:44:31;;;;;;;3.58;1.70;;;13.70;99.90;;;;;;5017964;28;20206;-67
2023/10/06 01:46:57;;;;;;;3.60;1.85;;;13.60;99.90;;;;;;5018014;28;20209;-66
2023/10/06 01:49:25;;;;;;;2.38;1.60;;;13.70;99.90;;;;;;5012199;28;20195;-66
2023/10/06 01:51:56;;;;;;;3.00;1.77;;;13.60;99.90;;;;;;5011781;28;20183;-66
2023/10/06 01:54:27;;;;;;;3.40;1.95;;;13.60;99.90;;;;;;5015998;28;20330;-66
2023/10/06 01:56:54;;;;;;;3.00;1.73;;;13.60;99.90;;;;;;5016890;28;20185;-67
2023/10/06 01:59:20;;;;;;;4.05;1.90;;;13.60;99.90;;;;;;5017560;28;20203;-66
2023/10/06 02:01:53;;;;;;;3.95;1.73;;;13.60;99.90;;;;;;5013134;28;20249;-67
2023/10/06 02:04:25;;;;;;;4.22;1.65;;;13.50;99.90;;;;;;5009686;28;20309;-67
2023/10/06 02:06:56;;;;;;;2.72;1.60;;;13.60;99.90;;;;;;5016271;28;20191;-66
2023/10/06 02:09:25;;;;;;;2.63;1.58;;;13.60;99.90;;;;;;5016408;28;20194;-67
2023/10/06 02:11:51;;;;;;;2.97;1.50;;;13.50;99.90;;;;;;5001249;28;20198;-67
2023/10/06 02:14:21;;;;;;;2.88;1.77;;;13.50;99.90;;;;;;5009701;28;20183;-67
2023/10/06 02:16:55;;;;;;;2.83;1.80;;;13.50;99.90;;;;;;5002481;28;20180;-67
2023/10/06 02:19:21;;;;;;;3.80;1.67;;;13.50;99.90;;;;;;5009855;28;20203;-67
2023/10/06 02:21:51;;;;;;;2.65;1.63;;;13.50;99.90;;;;;;5007240;28;20174;-67
2023/10/06 02:24:17;;;;;;;3.38;1.63;;;13.50;99.90;;;;;;5017682;28;20171;-68
2023/10/06 02:27:06;;;;;;;3.00;1.50;;;13.50;99.90;;;;;;5017341;28;20222;-67
2023/10/06 02:29:33;;;;;;;2.08;1.40;;;13.50;99.90;;;;;;5006042;28;20186;-67
2023/10/06 02:32:08;;;;;;;3.00;1.60;;;13.50;99.90;;;;;;5017189;28;20186;-67
2023/10/06 02:34:38;;;;;;;3.42;1.60;;;13.50;99.90;;;;;;5015354;28;20205;-67
2023/10/06 02:37:04;;;;;;;2.45;1.70;;;13.50;99.90;;;;;;5011703;28;20222;-67
2023/10/06 02:39:34;;;;;;;2.72;1.75;;;13.50;99.90;;;;;;5000686;28;20209;-67
2023/10/06 02:42:02;;;;;;;2.88;1.70;;;13.50;99.90;;;;;;5010596;28;20250;-67
2023/10/06 02:44:29;;;;;;;3.35;1.55;;;13.50;99.90;;;;;;5012953;28;20198;-66
2023/10/06 02:46:59;;;;;;;3.30;1.50;;;13.50;99.90;;;;;;5016878;28;20178;-67
2023/10/06 02:49:31;;;;;;;2.78;1.60;;;13.50;99.90;;;;;;5014914;28;20263;-67
2023/10/06 02:52:00;;;;;;;3.60;1.60;;;13.50;99.90;;;;;;5005003;28;20175;-67
2023/10/06 02:54:30;;;;;;;2.75;1.48;;;13.50;99.90;;;;;;5004265;28;20195;-67
2023/10/06 02:56:58;;;;;;;3.25;1.52;;;13.50;99.90;;;;;;5000392;28;20183;-67
2023/10/06 02:59:34;;;;;;;2.55;1.67;;;13.40;99.90;;;;;;5000814;28;20206;-67
2023/10/06 03:02:06;;;;;;;2.60;1.80;;;13.40;99.90;;;;;;5016727;28;20243;-67
2023/10/06 03:04:36;;;;;;;2.60;1.63;;;13.40;99.90;;;;;;5016293;28;20213;-67
2023/10/06 03:07:11;;;;;;;3.80;2.00;;;13.40;99.90;;;;;;5013920;28;20262;-68
2023/10/06 03:09:38;;;;;;;3.65;1.73;;;13.40;99.90;;;;;;5004446;28;20190;-67
2023/10/06 03:14:48;;;;;;;3.33;1.60;;;13.30;99.90;;;;;;5017165;28;20358;-67
2023/10/06 03:17:14;;;;;;;3.63;1.70;;;13.30;99.90;;;;;;5016433;28;20265;-69
2023/10/06 03:19:40;;;;;;;3.40;1.60;;;13.20;99.90;;;;;;5016359;28;20266;-67
2023/10/06 03:22:13;;;;;;;3.25;2.15;;;13.30;99.90;;;;;;5015965;28;20237;-68
2023/10/06 03:24:58;;;;;;;2.50;1.50;;;13.20;99.90;;;;;;5012537;28;20262;-68
2023/10/06 03:27:25;;;;;;;3.72;2.42;;;13.20;99.90;;;;;;5013574;28;20163;-68
2023/10/06 03:29:54;;;;;;;4.03;2.78;;;13.20;99.90;;;;;;5016180;28;20405;-67
2023/10/06 03:32:33;;;;;;;3.17;1.90;;;13.20;99.90;;;;;;5016232;28;20266;-68
2023/10/06 03:35:11;;;;;;;3.65;2.17;;;13.20;99.90;;;;;;5016332;28;20217;-68
2023/10/06 03:40:30;;;;;;;4.07;1.95;;;13.10;99.90;;;;;;5005513;28;20250;-65
2023/10/06 03:42:59;;;;;;;3.92;2.08;;;13.20;99.90;;;;;;5012690;28;20231;-66
2023/10/06 03:45:34;;;;;;;3.10;1.95;;;13.20;99.90;;;;;;5005299;28;20298;-68
2023/10/06 03:48:12;;;;;;;3.78;1.73;;;13.10;99.90;;;;;;4998711;28;20273;-66
2023/10/06 03:50:41;;;;;;;2.75;1.50;;;13.20;99.90;;;;;;5014039;28;20185;-66
2023/10/06 03:53:08;;;;;;;4.28;1.80;;;13.20;99.90;;;;;;5009598;28;20182;-66
2023/10/06 03:55:46;;;;;;;2.90;1.98;;;13.20;99.90;;;;;;4998405;28;20187;-65
2023/10/06 03:58:17;;;;;;;3.60;2.13;;;13.20;99.90;;;;;;5002239;28;20179;-66
2023/10/06 04:00:49;;;;;;;4.45;1.98;;;13.10;99.90;;;;;;5004387;28;20195;-66
2023/10/06 04:03:18;;;;;;;4.68;2.38;;;13.10;99.90;;;;;;5014196;28;20210;-66
2023/10/06 04:05:44;;;;;;;3.95;2.22;;;13.10;99.90;;;;;;5002364;28;20345;-66
2023/10/06 04:08:15;;;;;;;3.22;2.05;;;13.10;99.90;;;;;;5002897;28;20174;-66
2023/10/06 04:10:42;;;;;;;3.25;1.88;;;13.10;99.90;;;;;;5011547;28;20175;-66
2023/10/06 04:13:08;;;;;;;3.28;1.75;;;13.10;99.90;;;;;;5007114;28;20193;-67
2023/10/06 04:15:38;;;;;;;3.15;1.77;;;13.10;99.90;;;;;;4999121;28;20274;-67
2023/10/06 04:18:10;;;;;;;3.20;1.70;;;13.00;99.90;;;;;;5014281;28;20206;-67
2023/10/06 04:20:38;;;;;;;3.28;1.95;;;13.00;99.90;;;;;;5014780;28;20210;-67
2023/10/06 04:23:07;;;;;;;4.40;1.80;;;13.00;99.90;;;;;;5012034;28;20194;-66
2023/10/06 04:25:37;;;;;;;3.92;2.45;;;13.00;99.90;;;;;;5008384;28;20181;-67
2023/10/06 04:28:13;;;;;;;4.57;2.47;;;13.00;99.90;;;;;;5013632;28;20200;-67
2023/10/06 04:30:43;;;;;;;2.85;1.75;;;13.00;99.90;;;;;;5013500;28;20225;-67
2023/10/06 04:33:19;;;;;;;5.22;2.22;;;13.00;99.90;;;;;;5012463;28;20179;-66
2023/10/06 04:36:07;;;;;;;2.53;1.80;;;12.90;99.90;;;;;;5000917;28;20273;-66
2023/10/06 04:38:33;;;;;;;3.33;1.77;;;12.90;99.90;;;;;;5002111;28;20203;-66
2023/10/06 04:41:02;;;;;;;3.10;2.13;;;12.90;99.90;;;;;;5011473;28;20206;-66
2023/10/06 04:43:32;;;;;;;3.83;2.15;;;12.90;99.90;;;;;;4995772;28;20190;-66
2023/10/06 04:45:58;;;;;;;3.85;1.92;;;12.90;99.90;;;;;;4998401;28;20175;-66
2023/10/06 04:48:24;;;;;;;3.67;2.28;;;12.90;99.90;;;;;;5013484;28;20181;-67
2023/10/06 04:50:51;;;;;;;3.22;1.90;;;12.90;99.90;;;;;;5012382;28;20209;-66
2023/10/06 04:53:20;;;;;;;5.50;1.88;;;12.80;99.90;;;;;;5009849;28;20207;-65
2023/10/06 04:55:46;;;;;;;4.13;2.00;;;12.80;99.90;;;;;;5002316;28;20231;-66
2023/10/06 04:58:15;;;;;;;5.97;1.92;;;12.80;99.90;;;;;;4997747;28;20275;-66
2023/10/06 05:00:49;;;;;;;3.60;1.80;;;12.90;99.90;;;;;;5004658;28;20213;-71
2023/10/06 05:03:17;;;;;;;3.80;2.00;;;12.80;99.90;;;;;;5005169;28;20201;-71
2023/10/06 05:05:43;;;;;;;2.75;1.90;;;12.80;99.90;;;;;;5002411;28;20172;-71
2023/10/06 05:08:09;;;;;;;2.85;1.75;;;12.80;99.90;;;;;;5016225;28;20205;-71
2023/10/06 05:10:39;;;;;;;2.95;1.90;;;12.80;99.90;;;;;;5009132;28;20210;-70
2023/10/06 05:13:06;;;;;;;3.35;1.70;;;12.80;99.90;;;;;;5005962;28;20179;-71
2023/10/06 05:15:35;;;;;;;4.07;2.05;;;12.80;99.90;;;;;;5005480;28;20257;-71
2023/10/06 05:18:04;;;;;;;2.63;1.92;;;12.70;99.90;;;;;;5014959;28;20183;-71
2023/10/06 05:20:37;;;;;;;2.83;1.90;;;12.70;99.90;;;;;;5018616;28;20202;-71
2023/10/06 05:23:09;;;;;;;3.40;2.13;;;12.70;99.90;;;;;;5018961;28;20186;-67
2023/10/06 05:25:35;;;;;;;3.22;1.95;;;12.70;99.90;;;;;;5009758;28;20186;-67
2023/10/06 05:28:02;;;;;;;4.30;2.15;;;12.70;99.90;;;;;;5000667;28;20175;-67
2023/10/06 05:30:31;;;;;;;3.47;2.20;;;12.70;99.90;;;;;;5014636;28;20266;-67
2023/10/06 05:32:57;;;;;;;3.13;2.03;;;12.60;99.90;;;;;;5018330;28;20222;-66
2023/10/06 05:35:29;;;;;;;3.80;2.25;;;12.70;99.90;;;;;;5017467;28;20182;-66
2023/10/06 05:37:54;;;;;;;5.65;2.65;;;12.70;99.90;;;;;;5017393;28;20206;-67
2023/10/06 05:40:29;;;;;;;3.15;2.13;;;12.70;99.90;;;;;;5013410;28;20291;-66
2023/10/06 05:42:57;;;;;;;4.05;2.72;;;12.60;99.90;;;;;;5009870;28;20189;-67
2023/10/06 05:45:23;;;;;;;3.45;2.25;;;12.60;99.90;;;;;;5013757;28;20237;-66
2023/10/06 05:47:54;;;;;;;4.70;2.30;;;12.60;99.90;;;;;;5018022;28;20269;-66
2023/10/06 05:50:28;;;;;;;3.50;2.55;;;12.60;99.90;;;;;;5018080;28;20163;-66
2023/10/06 05:53:01;;;;;;;4.15;2.55;;;12.70;99.90;;;;;;5017331;28;20224;-66
2023/10/06 05:55:38;;;;;;;4.22;2.38;;;12.60;99.90;;;;;;4998558;28;20179;-66
2023/10/06 05:58:08;;;;;;;3.63;2.20;;;12.60;99.90;;;;;;4998145;28;20206;-66
2023/10/06 06:00:35;;;;;;;2.40;2.10;;;12.60;99.90;;;;;;5001230;28;20210;-66
2023/10/06 06:03:10;;;;;;;4.05;2.55;;;12.60;99.90;;;;;;5017685;28;20182;-67
2023/10/06 06:05:38;;;;;;;3.65;2.15;;;12.50;99.90;;;;;;5023584;28;20170;-67
2023/10/06 06:08:08;;;;;;;3.53;2.25;;;12.60;99.90;;;;;;5036895;28;20247;-67
2023/10/06 06:10:37;;;;;;;3.80;2.30;;;12.60;99.90;;;;;;5017564;28;20175;-67
2023/10/06 06:13:04;;;;;;;4.07;2.50;;;12.60;99.90;;;;;;5017369;28;20214;-67
2023/10/06 06:15:31;;;;;;;4.03;2.53;;;12.60;99.90;;;;;;5017359;28;20171;-67
2023/10/06 06:18:00;;;;;;;3.65;2.45;;;12.60;99.90;;;;;;5017337;28;20211;-67
2023/10/06 06:20:30;;;;;;;3.08;2.38;;;12.60;99.90;;;;;;5017560;28;20214;-67
2023/10/06 06:22:59;;;;;;;3.90;2.55;;;12.70;99.90;;;;;;5017245;28;20182;-67
2023/10/06 06:25:26;;;;;;;3.40;2.20;;;12.70;99.90;;;;;;4998282;28;20173;-67
2023/10/06 06:27:54;;;;;;;3.30;2.45;;;12.70;99.90;;;;;;5013316;28;20206;-67
2023/10/06 06:30:20;;;;;;;3.85;2.35;;;12.70;99.90;;;;;;5025718;28;20200;-66
2023/10/06 06:32:49;;;;;;;3.72;2.45;;;12.80;99.90;;;;;;5017241;28;20174;-66
2023/10/06 06:35:22;;;;;;;3.38;2.40;;;12.80;99.90;;;;;;5016690;28;20230;-68
2023/10/06 06:37:59;;;;;;;3.90;2.40;;;12.80;99.90;;;;;;5016928;28;20190;-67
2023/10/06 06:40:26;;;;;;;3.40;2.20;;;12.90;99.90;;;;;;5016441;28;20209;-67
2023/10/06 06:42:57;;;;;;;2.90;2.30;;;12.90;99.90;;;;;;5017144;28;20194;-67
2023/10/06 06:45:25;;;;;;;2.65;2.05;;;13.00;99.90;;;;;;5016603;28;20275;-67
2023/10/06 06:47:52;;;;;;;3.55;2.15;;;13.00;99.90;;;;;;5016875;28;20191;-67
2023/10/06 06:50:18;;;;;;;3.47;1.98;;;13.00;99.90;;;;;;5016836;28;20182;-67
2023/10/06 06:52:46;;;;;;;5.03;2.50;;;13.10;99.90;;;;;;5016844;28;20174;-67
2023/10/06 06:55:14;;;;;;;5.13;2.50;;;13.10;99.90;;;;;;5016125;28;20210;-68
2023/10/06 06:57:43;;;;;;;4.40;2.13;;;13.10;99.90;;;;;;5016949;28;20336;-74
2023/10/06 07:00:17;;;;;;;2.95;2.25;;;13.20;99.90;;;;;;5000382;28;20207;-77
2023/10/06 07:02:47;;;;;;;4.25;2.13;;;13.20;99.90;;;;;;4996664;28;20203;-76
2023/10/06 07:05:19;;;;;;;4.13;2.20;;;13.20;99.90;;;;;;5012715;28;20194;-76
2023/10/06 07:07:54;;;;;;;2.97;2.17;;;13.30;99.90;;;;;;5006225;28;20172;-77
2023/10/06 07:10:22;;;;;;;3.38;2.10;;;13.30;99.90;;;;;;5013314;28;20167;-74
2023/10/06 07:12:50;;;;;;;3.67;2.50;;;13.40;99.90;;;;;;5015916;28;20187;-74
2023/10/06 07:15:20;;;;;;;2.22;2.00;;;13.40;99.90;;;;;;5016277;28;20201;-72
2023/10/06 07:17:54;;;;;;;3.03;2.28;;;13.40;99.90;;;;;;5016238;28;20174;-75
2023/10/06 07:20:28;;;;;;;4.55;2.10;;;13.50;99.90;;;;;;5016513;28;20209;-75
2023/10/06 07:23:00;;;;;;;4.25;2.42;;;13.60;99.90;;;;;;5015512;28;20206;-76
2023/10/06 07:25:26;;;;;;;3.50;2.22;;;13.60;99.90;;;;;;5016360;28;20179;-76
2023/10/06 07:27:59;;;;;;;3.03;2.00;;;13.70;99.90;;;;;;5016330;28;20181;-73
2023/10/06 07:30:34;;;;;;;3.42;1.95;;;13.80;99.90;;;;;;5015683;28;20378;-76
2023/10/06 07:33:08;;;;;;;2.80;2.00;;;13.80;99.90;;;;;;5010654;28;20281;-76
2023/10/06 07:35:47;;;;;;;2.70;2.22;;;13.80;99.90;;;;;;5015688;28;20224;-75
2023/10/06 07:38:15;;;;;;;3.30;2.13;;;13.90;99.90;;;;;;5015789;28;20289;-74
2023/10/06 07:40:43;;;;;;;4.28;2.47;;;14.00;99.90;;;;;;5015053;28;20213;-76
2023/10/06 07:43:10;;;;;;;4.30;2.20;;;14.10;99.90;;;;;;5015673;28;20206;-75
2023/10/06 07:45:38;;;;;;;3.05;1.98;;;14.10;99.90;;;;;;5015208;28;20206;-76
2023/10/06 07:48:08;;;;;;;4.32;2.40;;;14.20;99.90;;;;;;5015100;28;20170;-75
2023/10/06 07:50:35;;;;;;;3.83;1.90;;;14.30;99.90;;;;;;5015199;28;20194;-76
2023/10/06 07:53:03;;;;;;;3.83;2.10;;;14.40;99.90;;;;;;5014928;28;20178;-72
2023/10/06 07:55:30;;;;;;;2.72;2.05;;;14.50;99.90;;;;;;5015657;28;20244;-75
2023/10/06 07:57:57;;;;;;;5.38;2.13;;;14.50;99.90;;;;;;5015329;28;20273;-74
2023/10/06 08:00:29;;;;;;;4.30;2.30;;;14.60;99.90;;;;;;5015368;28;20233;-75
2023/10/06 08:03:00;;;;;;;3.25;2.20;;;14.70;99.90;;;;;;5020456;28;20185;-73
2023/10/06 08:05:28;;;;;;;3.22;1.85;;;14.80;99.90;;;;;;5015563;28;20207;-75
2023/10/06 08:07:57;;;;;;;2.78;2.10;;;14.90;99.90;;;;;;5014945;28;20237;-72
2023/10/06 08:10:23;;;;;;;3.80;2.28;;;15.00;99.90;;;;;;5015166;28;20197;-74
2023/10/06 08:13:02;;;;;;;4.28;2.17;;;15.10;99.90;;;;;;5015088;28;20186;-73
2023/10/06 08:15:28;;;;;;;3.00;2.15;;;15.20;99.90;;;;;;5015472;28;20186;-73
2023/10/06 08:17:55;;;;;;;3.00;1.90;;;15.20;99.90;;;;;;5015314;28;20271;-75
2023/10/06 08:20:22;;;;;;;3.22;1.90;;;15.30;99.90;;;;;;5015354;28;20217;-76
2023/10/06 08:22:49;;;;;;;2.53;1.70;;;15.40;99.90;;;;;;5015284;28;20209;-75
2023/10/06 08:25:21;;;;;;;4.43;2.05;;;15.50;99.90;;;;;;5015152;28;20178;-76
2023/10/06 08:27:50;;;;;;;2.15;1.83;;;15.60;99.90;;;;;;5014913;28;20258;-75
2023/10/06 08:30:19;;;;;;;2.55;1.85;;;15.70;99.90;;;;;;5006306;28;20189;-75
2023/10/06 08:32:47;;;;;;;3.42;1.98;;;15.70;99.90;;;;;;5011111;28;20210;-75
2023/10/06 08:35:16;;;;;;;3.33;2.08;;;15.80;99.90;;;;;;4996170;28;20176;-73
2023/10/06 08:37:42;;;;;;;3.15;2.20;;;16.00;99.90;;;;;;5000514;28;20211;-75
2023/10/06 08:40:16;;;;;;;3.00;2.08;;;16.10;99.90;;;;;;4996554;28;20203;-75
2023/10/06 08:42:56;;;;;;;3.65;2.03;;;16.20;99.90;;;;;;4995245;28;20174;-73
2023/10/06 08:45:24;;;;;;;2.03;1.65;;;16.30;99.90;;;;;;5000948;28;20209;-75
2023/10/06 08:47:53;;;;;;;3.33;2.20;;;16.40;99.90;;;;;;5000807;28;20189;-75
2023/10/06 08:50:22;;;;;;;3.38;2.10;;;16.50;99.90;;;;;;5025190;28;20178;-76
2023/10/06 08:52:53;;;;;;;3.30;2.35;;;16.50;99.90;;;;;;5014412;28;20186;-75
2023/10/06 08:55:20;;;;;;;5.85;2.55;;;16.50;99.90;;;;;;4995148;28;20249;-76
2023/10/06 08:57:47;;;;;;;2.38;1.80;;;16.60;99.90;;;;;;4994834;28;20230;-74
2023/10/06 09:00:31;;;;;;;5.53;2.30;;;16.50;99.90;;;;;;4995146;28;20213;-76
2023/10/06 09:03:03;;;;;;;4.35;2.47;;;16.50;99.90;;;;;;4995089;28;20164;-74
2023/10/06 09:05:32;;;;;;;4.22;2.17;;;16.60;99.90;;;;;;4997463;28;20203;-76
2023/10/06 09:07:57;;;;;;;3.10;2.10;;;16.60;99.90;;;;;;5014513;28;20183;-72
2023/10/06 09:10:26;;;;;;;3.70;2.05;;;16.70;99.90;;;;;;5014467;28;20189;-76
2023/10/06 09:13:11;;;;;;;4.88;2.28;;;16.80;99.90;;;;;;5014822;28;20252;-77
2023/10/06 09:15:43;;;;;;;4.10;2.17;;;16.90;99.90;;;;;;5014503;28;20163;-75
2023/10/06 09:18:21;;;;;;;4.72;2.05;;;17.10;99.90;;;;;;5014608;28;20257;-74
2023/10/06 09:20:50;;;;;;;3.60;2.10;;;17.40;99.90;;;;;;5014481;28;20190;-77
2023/10/06 09:23:40;;;;;;;2.40;1.88;;;17.90;99.90;;;;;;5015286;28;20178;-76
2023/10/06 09:26:11;;;;;;;2.03;1.58;;;18.60;99.90;;;;;;5014454;28;20199;-75
2023/10/06 09:29:01;;;;;;;3.20;1.88;;;19.40;99.90;;;;;;5014178;28;20264;-75
2023/10/06 09:31:38;;;;;;;2.65;1.42;;;20.00;99.90;;;;;;5004934;28;20178;-74
2023/10/06 09:34:11;;;;;;;3.95;1.85;;;20.60;99.90;;;;;;5014104;28;20181;-76
2023/10/06 09:36:42;;;;;;;3.15;1.60;;;21.20;99.90;;;;;;5014333;28;20385;-76
2023/10/06 09:39:14;;;;;;;3.58;1.65;;;21.60;99.90;;;;;;5014809;28;20329;-75
2023/10/06 09:41:40;;;;;;;2.78;1.42;;;22.10;99.90;;;;;;5001043;28;20179;-73
2023/10/06 09:44:09;;;;;;;2.40;1.65;;;22.50;99.90;;;;;;5014005;28;20195;-75
2023/10/06 09:46:35;;;;;;;4.40;2.40;;;22.80;99.90;;;;;;5016209;28;20277;-75
2023/10/06 09:49:09;;;;;;;4.70;2.20;;;23.10;99.90;;;;;;5017748;28;20179;-71
2023/10/06 09:51:36;;;;;;;4.70;1.77;;;23.20;99.90;;;;;;5017107;28;20183;-74
2023/10/06 09:54:11;;;;;;;2.42;1.58;;;23.30;99.90;;;;;;5017678;28;20295;-75
2023/10/06 09:56:47;;;;;;;2.67;1.50;;;23.40;99.90;;;;;;5017351;28;20170;-73
2023/10/06 09:59:14;;;;;;;3.35;1.80;;;23.60;99.90;;;;;;5017767;28;20194;-71
2023/10/06 10:01:42;;;;;;;2.85;1.80;;;23.90;99.90;;;;;;5037067;28;20190;-76
2023/10/06 10:04:12;;;;;;;3.47;1.50;;;24.00;99.90;;;;;;5032556;28;20178;-75
2023/10/06 10:06:43;;;;;;;3.40;1.70;;;24.10;99.90;;;;;;5017251;28;20249;-72
2023/10/06 10:09:20;;;;;;;3.17;1.83;;;24.30;99.90;;;;;;5016702;28;20179;-76
2023/10/06 10:12:02;;;;;;;2.75;1.42;;;24.40;99.90;;;;;;5017252;28;20162;-76
2023/10/06 10:14:53;;;;;;;4.18;2.15;;;24.50;99.90;;;;;;5017503;28;20229;-73
2023/10/06 10:17:43;;;;;;;2.42;1.52;;;24.60;99.90;;;;;;5018067;28;20246;-72
2023/10/06 10:20:13;;;;;;;3.95;1.80;;;24.60;99.90;;;;;;5016805;28;20229;-74
2023/10/06 10:22:43;;;;;;;3.72;1.50;;;24.60;99.90;;;;;;5017500;28;20171;-72
2023/10/06 10:25:13;;;;;;;3.05;1.70;;;24.50;99.90;;;;;;5016922;28;20178;-74
2023/10/06 10:27:39;;;;;;;2.83;1.60;;;24.40;99.90;;;;;;5017003;28;20248;-77
2023/10/06 10:30:17;;;;;;;4.05;1.48;;;24.30;99.90;;;;;;5013485;28;20183;-75
2023/10/06 10:32:55;;;;;;;2.83;1.42;;;24.30;99.90;;;;;;4997900;28;20384;-74
2023/10/06 10:35:21;;;;;;;4.18;1.63;;;24.30;99.90;;;;;;5005207;28;20202;-74
2023/10/06 10:38:02;;;;;;;3.85;1.67;;;24.30;99.90;;;;;;5015994;28;20264;-75
2023/10/06 10:40:29;;;;;;;2.88;1.63;;;24.30;99.90;;;;;;5018013;28;20202;-75
2023/10/06 10:43:06;;;;;;;3.25;1.73;;;24.30;99.90;;;;;;4996968;28;20168;-76
2023/10/06 10:45:47;;;;;;;4.13;1.65;;;24.30;99.90;;;;;;4997468;28;20199;-75
2023/10/06 10:48:15;;;;;;;2.72;1.58;;;24.20;99.90;;;;;;5001301;28;20396;-74
2023/10/06 10:50:55;;;;;;;2.28;1.63;;;24.10;99.90;;;;;;4997100;28;20175;-76
2023/10/06 10:53:26;;;;;;;3.70;1.73;;;24.10;99.90;;;;;;5011879;28;20190;-78
2023/10/06 10:55:52;;;;;;;4.15;1.83;;;24.20;99.90;;;;;;4996764;28;20231;-76
2023/10/06 10:58:49;;;;;;;3.53;1.80;;;24.30;99.90;;;;;;5003659;28;20213;-76
2023/10/06 11:01:27;;;;;;;3.58;1.52;;;24.30;99.90;;;;;;5016298;28;20198;-73
2023/10/06 11:04:31;;;;;;;2.25;1.38;;;24.20;99.90;;;;;;5015382;28;20166;-76
2023/10/06 11:07:15;;;;;;;4.18;1.77;;;24.10;99.90;;;;;;5021324;28;20185;-77
2023/10/06 11:09:41;;;;;;;2.20;1.42;;;24.00;99.90;;;;;;5016370;28;20218;-75
2023/10/06 11:12:16;;;;;;;3.47;1.70;;;24.00;99.90;;;;;;5015486;28;20236;-74
2023/10/06 11:14:41;;;;;;;4.30;2.25;;;24.00;99.90;;;;;;5016102;28;20189;-77
2023/10/06 11:17:11;;;;;;;2.95;1.83;;;23.90;99.90;;;;;;5015907;28;20175;-75
2023/10/06 11:19:39;;;;;;;6.40;1.80;;;23.90;99.90;;;;;;5015860;28;20288;-77
2023/10/06 11:22:19;;;;;;;5.80;1.75;;;23.90;99.90;;;;;;5015889;28;20177;-75
2023/10/06 11:24:51;;;;;;;2.83;1.65;;;23.90;99.90;;;;;;5015904;28;20174;-76
2023/10/06 11:27:22;;;;;;;3.70;1.55;;;23.80;99.90;;;;;;5016149;28;20186;-77
2023/10/06 11:29:59;;;;;;;3.10;1.60;;;23.80;99.90;;;;;;5015976;28;20206;-77
2023/10/06 11:32:28;;;;;;;2.72;1.55;;;23.80;99.90;;;;;;5015867;28;20174;-77
2023/10/06 11:34:54;;;;;;;3.53;1.40;;;23.80;99.90;;;;;;5015964;28;20298;-75
2023/10/06 11:37:24;;;;;;;3.47;1.80;;;23.80;99.90;;;;;;5015633;28;20249;-75
2023/10/06 11:39:57;;;;;;;3.33;1.73;;;23.80;99.90;;;;;;5015154;28;20198;-76
2023/10/06 11:42:25;;;;;;;2.83;1.50;;;23.80;99.90;;;;;;4998015;28;20452;-74
2023/10/06 11:44:59;;;;;;;2.72;1.60;;;23.90;99.90;;;;;;5013135;28;20174;-77
2023/10/06 11:47:28;;;;;;;4.07;1.48;;;23.90;99.90;;;;;;5015600;28;20197;-75
2023/10/06 11:49:58;;;;;;;3.20;1.65;;;24.00;99.90;;;;;;5015568;28;20213;-74
2023/10/06 11:52:29;;;;;;;3.50;1.70;;;24.10;99.90;;;;;;5026825;28;20179;-76
2023/10/06 11:54:57;;;;;;;4.93;1.83;;;24.10;99.90;;;;;;5007120;28;20185;-76
2023/10/06 11:57:42;;;;;;;2.78;1.55;;;24.20;99.90;;;;;;5011805;28;20203;-75
2023/10/06 12:00:10;;;;;;;3.53;1.75;;;24.20;99.90;;;;;;5012490;28;20340;-75
2023/10/06 12:02:50;;;;;;;3.50;1.67;;;24.10;99.90;;;;;;5015031;28;20175;-76
2023/10/06 12:05:22;;;;;;;2.60;1.42;;;23.90;99.90;;;;;;5015244;28;20277;-76
2023/10/06 12:07:51;;;;;;;3.00;1.60;;;23.80;99.90;;;;;;5014981;28;20262;-74
2023/10/06 12:10:21;;;;;;;2.75;1.42;;;23.70;99.90;;;;;;5015302;28;20199;-72
2023/10/06 12:12:50;;;;;;;2.72;1.30;;;23.60;99.90;;;;;;5015149;28;20183;-75
2023/10/06 12:15:19;;;;;;;2.75;1.77;;;23.60;99.90;;;;;;5015425;28;20217;-75
2023/10/06 12:17:50;;;;;;;2.60;1.40;;;23.50;99.90;;;;;;5014948;28;20266;-76
2023/10/06 12:20:18;;;;;;;2.78;1.73;;;23.40;99.90;;;;;;5015264;28;20256;-76
2023/10/06 12:22:48;;;;;;;2.92;1.55;;;23.40;99.90;;;;;;5015291;28;20274;-77
2023/10/06 12:25:23;;;;;;;3.20;1.75;;;23.40;99.90;;;;;;5015495;28;20226;-76
2023/10/06 12:27:50;;;;;;;2.22;1.40;;;23.50;99.90;;;;;;5015904;28;20261;-76
2023/10/06 12:30:17;;;;;;;3.25;1.70;;;23.60;99.90;;;;;;5015749;28;20206;-76
2023/10/06 12:32:45;;;;;;;2.92;1.63;;;23.90;99.90;;;;;;5015689;28;20174;-77
2023/10/06 12:35:11;;;;;;;2.13;1.40;;;24.10;99.90;;;;;;5015459;28;20242;-76
2023/10/06 12:37:41;;;;;;;2.03;1.30;;;24.30;99.90;;;;;;5015326;28;20300;-77
2023/10/06 12:40:11;;;;;;;3.00;1.65;;;24.50;99.90;;;;;;5015229;28;20217;-76
2023/10/06 12:42:38;;;;;;;2.65;1.60;;;24.80;99.90;;;;;;5014680;28;20179;-77
2023/10/06 12:45:17;;;;;;;2.00;1.50;;;24.90;99.90;;;;;;5015374;28;20202;-76
2023/10/06 12:47:46;;;;;;;3.20;1.60;;;25.10;99.90;;;;;;5015006;28;20269;-76
2023/10/06 12:50:19;;;;;;;2.25;1.30;;;25.30;99.90;;;;;;5015352;28;20202;-74
2023/10/06 12:52:49;;;;;;;3.47;1.52;;;25.30;99.90;;;;;;5014931;28;20178;-77
2023/10/06 12:55:22;;;;;;;1.70;1.35;;;25.20;99.90;;;;;;5014188;28;20175;-76
2023/10/06 12:57:52;;;;;;;3.72;1.70;;;25.00;99.90;;;;;;5014811;28;20636;-71
2023/10/06 13:00:21;;;;;;;3.58;1.50;;;24.80;99.90;;;;;;5014775;28;20222;-75
2023/10/06 13:02:50;;;;;;;2.33;1.40;;;24.70;99.90;;;;;;5016743;28;20248;-75
2023/10/06 13:05:16;;;;;;;3.45;1.52;;;24.60;99.90;;;;;;5035033;28;20193;-76
2023/10/06 13:07:51;;;;;;;4.13;1.52;;;24.60;99.90;;;;;;5032711;28;20166;-73
2023/10/06 13:10:22;;;;;;;2.35;1.38;;;24.60;99.90;;;;;;5015339;28;20177;-72
2023/10/06 13:12:50;;;;;;;2.42;1.38;;;24.50;99.90;;;;;;5015110;28;20217;-75
2023/10/06 13:15:20;;;;;;;4.82;1.58;;;24.50;99.90;;;;;;5014881;28;20210;-75